Time;durP1;ratioP1;P1;durP2;ratioP2;P2;SDS_P1;SDS_P2;PMS_P1;PMS_P2;Temp;Humidity;BMP_temperature;BMP_pressure;BME280_temperature;BME280_humidity;BME280_pressure;Samples;Min_cycle;Max_cycle;Signal;HPM_P1;HPM_P2
2022/05/19 00:01:55;;;;;;;5.97;3.40;;;;;;;9.45;89.03;101575.81;4992801;28;20081;-75
2022/05/19 00:04:21;;;;;;;4.53;3.15;;;;;;;9.54;88.46;101572.09;4992513;28;20076;-75
2022/05/19 00:09:21;;;;;;;7.25;3.55;;;;;;;9.73;87.63;101604.06;4989028;28;20062;-78
2022/05/19 00:11:47;;;;;;;5.95;3.38;;;;;;;9.78;88.28;101600.09;4992170;28;20034;-77
2022/05/19 00:14:13;;;;;;;6.43;3.30;;;;;;;9.77;87.92;101598.31;4991402;28;20035;-76
2022/05/19 00:16:39;;;;;;;4.53;3.00;;;;;;;9.67;88.16;101602.03;4991865;28;20089;-76
2022/05/19 00:22:26;;;;;;;5.43;3.20;;;;;;;9.56;87.52;101603.09;5035644;22;20069;-76
2022/05/19 00:24:52;;;;;;;4.97;3.20;;;;;;;9.55;88.21;101601.31;5012252;28;20049;-76
2022/05/19 00:27:17;;;;;;;6.60;3.08;;;;;;;9.35;88.13;101572.66;5010529;28;20030;-77
2022/05/19 00:29:42;;;;;;;6.18;3.17;;;;;;;9.51;88.18;101610.56;5001644;28;20502;-76
2022/05/19 00:32:08;;;;;;;5.50;3.20;;;;;;;9.54;87.43;101597.88;4990786;28;20477;-77
2022/05/19 00:34:33;;;;;;;4.50;3.03;;;;;;;9.56;87.04;101603.09;4992034;28;20035;-77
2022/05/19 00:40:23;;;;;;;7.75;3.03;;;;;;;9.37;88.06;101595.94;5049271;22;20066;-76
2022/05/19 00:42:50;;;;;;;4.97;2.83;;;;;;;9.43;88.30;101606.63;4991693;28;20030;-77
2022/05/19 00:45:23;;;;;;;5.25;3.10;;;;;;;9.49;89.14;101621.56;4986995;28;20034;-76
2022/05/19 00:48:06;;;;;;;6.32;3.22;;;;;;;9.43;88.15;101614.34;4990273;28;20493;-77
2022/05/19 00:50:35;;;;;;;11.15;3.20;;;;;;;9.35;88.87;101611.31;4990582;28;20023;-77
2022/05/19 00:53:11;;;;;;;5.07;2.75;;;;;;;9.20;89.31;101606.13;4990792;28;20065;-77
2022/05/19 00:55:42;;;;;;;3.45;2.35;;;;;;;9.23;88.11;101608.00;4990507;28;20168;-77
2022/05/19 00:58:20;;;;;;;6.55;2.78;;;;;;;9.03;87.44;101571.63;4990504;28;20554;-77
2022/05/19 01:00:46;;;;;;;5.32;2.67;;;;;;;9.09;86.93;101576.25;4957903;28;20035;-77
2022/05/19 01:03:15;;;;;;;3.92;2.25;;;;;;;9.25;85.87;101602.97;4990657;28;20156;-77
2022/05/19 01:05:48;;;;;;;4.97;2.53;;;;;;;8.82;86.49;101532.59;4990651;28;20026;-76
2022/05/19 01:08:24;;;;;;;3.95;2.95;;;;;;;9.38;87.42;101614.09;4990452;28;20038;-76
2022/05/19 01:10:51;;;;;;;5.93;2.70;;;;;;;9.24;87.24;101596.91;4990266;28;20165;-76
2022/05/19 01:13:16;;;;;;;4.50;2.30;;;;;;;9.10;87.07;101608.94;4990595;28;20029;-76
2022/05/19 01:15:49;;;;;;;5.05;3.05;;;;;;;9.05;86.48;101618.97;4990380;28;20042;-76
2022/05/19 01:18:16;;;;;;;8.60;2.70;;;;;;;9.05;87.01;101611.22;4990238;28;20034;-77
2022/05/19 01:20:43;;;;;;;4.50;2.40;;;;;;;8.96;88.24;101622.66;4989867;28;20026;-77
2022/05/19 01:23:20;;;;;;;5.93;2.50;;;;;;;8.99;87.65;101617.72;4990190;28;20026;-79
2022/05/19 01:26:10;;;;;;;4.32;2.50;;;;;;;8.79;87.71;101607.06;4991432;28;20451;-77
2022/05/19 01:28:36;;;;;;;4.28;2.85;;;;;;;8.85;88.22;101614.28;4991464;28;20034;-77
2022/05/19 01:31:01;;;;;;;4.28;2.40;;;;;;;8.78;89.40;101622.41;4995233;28;20037;-77
2022/05/19 01:33:27;;;;;;;3.20;2.30;;;;;;;8.68;90.62;101628.66;4995537;28;20026;-78
2022/05/19 01:35:52;;;;;;;7.00;2.90;;;;;;;8.55;89.95;101606.41;4995450;28;20540;-77
2022/05/19 01:38:26;;;;;;;5.18;2.35;;;;;;;8.64;88.82;101604.41;4995075;28;20022;-78
2022/05/19 01:40:51;;;;;;;6.80;2.60;;;;;;;8.69;89.63;101623.59;4994950;28;20606;-76
2022/05/19 01:43:22;;;;;;;3.42;2.40;;;;;;;8.77;88.44;101618.06;4995038;28;20062;-77
2022/05/19 01:46:01;;;;;;;6.43;2.30;;;;;;;8.77;88.88;101621.50;4994809;28;20523;-74
2022/05/19 01:48:46;;;;;;;7.63;2.17;;;;;;;8.72;88.86;101626.38;4995235;28;20046;-76
2022/05/19 01:51:31;;;;;;;4.95;2.40;;;;;;;8.32;87.44;101558.59;4994145;28;20057;-78
2022/05/19 01:54:39;;;;;;;6.03;3.03;;;;;;;8.42;88.15;101599.53;4994655;28;20034;-78
2022/05/19 01:57:12;;;;;;;4.22;2.40;;;;;;;8.60;87.64;101622.13;4989476;28;20119;-77
2022/05/19 01:59:41;;;;;;;4.53;2.65;;;;;;;8.39;88.56;101583.91;4994775;28;20034;-77
2022/05/19 02:02:18;;;;;;;5.05;2.70;;;;;;;8.31;89.61;101582.53;4994613;28;20066;-77
2022/05/19 02:04:53;;;;;;;3.70;2.50;;;;;;;8.50;89.72;101624.13;4960020;28;20043;-77
2022/05/19 02:07:20;;;;;;;7.95;2.50;;;;;;;8.66;88.69;101626.00;4994629;28;20026;-77
2022/05/19 02:09:53;;;;;;;4.88;2.92;;;;;;;8.63;88.93;101612.03;4994456;28;20501;-77
2022/05/19 02:12:19;;;;;;;5.65;2.60;;;;;;;8.57;89.54;101613.44;4994628;28;20034;-77
2022/05/19 02:14:48;;;;;;;8.15;2.53;;;;;;;8.12;89.83;101544.44;4994242;28;20397;-76
2022/05/19 02:17:17;;;;;;;3.97;2.30;;;;;;;8.39;87.54;101574.50;4994366;28;20089;-75
2022/05/19 02:19:46;;;;;;;5.35;3.28;;;;;;;8.56;88.28;101636.47;4994551;28;21085;-76
2022/05/19 02:22:16;;;;;;;4.20;2.88;;;;;;;8.31;90.16;101613.41;4994190;28;20564;-75
2022/05/19 02:24:49;;;;;;;4.55;2.60;;;;;;;8.35;89.09;101598.25;4994224;28;20397;-75
2022/05/19 02:27:40;;;;;;;4.65;2.67;;;;;;;8.40;89.70;101616.59;4993687;28;20559;-75
2022/05/19 02:30:10;;;;;;;9.27;2.78;;;;;;;8.47;90.48;101633.34;4994126;28;20436;-75
2022/05/19 02:32:36;;;;;;;7.85;3.15;;;;;;;8.24;89.04;101582.13;4994110;28;20037;-75
2022/05/19 02:35:06;;;;;;;5.63;2.95;;;;;;;8.52;89.33;101625.13;4993897;28;20030;-74
2022/05/19 02:37:32;;;;;;;5.63;2.90;;;;;;;8.33;90.09;101611.81;4993613;28;20485;-77
2022/05/19 02:39:58;;;;;;;6.20;3.33;;;;;;;8.33;91.01;101615.28;4993084;28;20058;-77
2022/05/19 02:42:23;;;;;;;7.30;3.53;;;;;;;8.46;90.75;101637.59;4992903;28;20034;-77
2022/05/19 02:44:48;;;;;;;6.93;4.10;;;;;;;8.35;91.37;101634.28;4994047;28;20050;-77
2022/05/19 02:47:14;;;;;;;7.88;3.35;;;;;;;8.32;91.80;101640.91;4993956;28;20037;-75
2022/05/19 02:49:39;;;;;;;7.40;3.25;;;;;;;8.11;92.52;101615.56;4993512;28;20041;-77
2022/05/19 02:52:05;;;;;;;6.78;3.45;;;;;;;8.22;92.55;101637.75;4993421;28;20042;-74
2022/05/19 02:54:30;;;;;;;6.57;2.83;;;;;;;8.21;91.51;101643.69;4993263;28;20026;-75
2022/05/19 02:56:56;;;;;;;8.77;3.53;;;;;;;8.30;90.46;101633.09;4992535;28;20492;-74
2022/05/19 02:59:22;;;;;;;7.25;3.40;;;;;;;8.39;90.59;101640.53;4992474;28;20405;-76
2022/05/19 03:01:47;;;;;;;4.88;3.20;;;;;;;8.27;90.72;101630.31;4992181;28;20038;-75
2022/05/19 03:04:13;;;;;;;7.75;3.28;;;;;;;8.32;91.97;101640.91;4992858;28;20030;-74
2022/05/19 03:06:38;;;;;;;5.90;3.20;;;;;;;8.23;92.30;101630.91;4992044;28;20041;-76
2022/05/19 03:09:07;;;;;;;4.22;2.50;;;;;;;8.32;91.17;101635.78;4992209;28;20118;-75
2022/05/19 03:11:33;;;;;;;4.07;2.72;;;;;;;8.30;90.37;101627.06;4992237;28;20054;-75
2022/05/19 03:13:59;;;;;;;5.85;2.53;;;;;;;8.53;89.14;101649.16;4990941;28;20032;-75
2022/05/19 03:16:25;;;;;;;5.75;2.70;;;;;;;8.54;89.44;101650.94;4990730;28;20121;-77
2022/05/19 03:18:50;;;;;;;3.80;2.42;;;;;;;8.53;89.64;101655.19;4992334;28;20492;-77
2022/05/19 03:21:15;;;;;;;5.43;3.20;;;;;;;8.39;90.14;101635.38;4991282;28;20504;-76
2022/05/19 03:23:41;;;;;;;8.65;3.40;;;;;;;8.43;90.22;101648.53;4991611;28;20023;-77
2022/05/19 03:26:06;;;;;;;10.27;3.97;;;;;;;8.09;90.65;101601.72;4991783;28;20030;-74
2022/05/19 03:28:32;;;;;;;5.50;2.85;;;;;;;8.25;90.28;101634.50;4991809;28;20523;-76
2022/05/19 03:30:57;;;;;;;8.20;3.20;;;;;;;8.24;90.60;101650.72;4992238;28;20062;-75
2022/05/19 03:33:22;;;;;;;6.05;2.92;;;;;;;8.06;91.41;101641.00;4991904;28;20041;-76
2022/05/19 03:35:57;;;;;;;8.35;3.20;;;;;;;8.14;92.19;101651.78;4974852;28;20512;-77
2022/05/19 03:38:22;;;;;;;6.30;3.13;;;;;;;8.19;92.16;101660.69;4992102;28;20412;-75
2022/05/19 03:40:47;;;;;;;6.25;2.92;;;;;;;8.19;92.18;101645.25;4992032;28;20050;-76
2022/05/19 03:43:13;;;;;;;5.85;3.35;;;;;;;8.31;92.31;101650.34;4992899;28;20039;-76
2022/05/19 03:45:39;;;;;;;4.35;3.10;;;;;;;8.15;92.19;101626.94;4992882;28;20030;-76
2022/05/19 03:48:05;;;;;;;7.03;3.60;;;;;;;8.42;92.66;101663.88;4992663;28;20026;-76
2022/05/19 03:50:30;;;;;;;4.57;3.22;;;;;;;8.40;92.41;101650.03;4992712;28;20444;-76
2022/05/19 03:52:56;;;;;;;5.80;3.90;;;;;;;8.31;92.98;101645.19;4992032;28;20031;-77
2022/05/19 03:55:22;;;;;;;5.55;3.35;;;;;;;8.40;93.42;101653.50;4992799;28;20026;-77
2022/05/19 03:57:47;;;;;;;5.75;3.28;;;;;;;8.33;93.97;101669.31;4992374;28;20110;-76
2022/05/19 04:00:13;;;;;;;5.68;3.45;;;;;;;8.09;93.96;101637.75;4992643;28;20026;-76
2022/05/19 04:02:40;;;;;;;5.85;3.70;;;;;;;7.92;94.67;101650.38;4992185;28;20053;-76
2022/05/19 04:05:06;;;;;;;9.13;4.10;;;;;;;7.83;95.92;101652.31;4992294;28;20085;-76
2022/05/19 04:07:32;;;;;;;6.15;4.15;;;;;;;7.87;96.83;101677.44;4992041;28;20457;-75
2022/05/19 04:09:57;;;;;;;11.73;4.25;;;;;;;7.73;97.75;101661.09;4992055;28;20070;-76
2022/05/19 04:12:23;;;;;;;7.20;3.88;;;;;;;7.83;98.00;101660.03;4992346;28;20058;-76
2022/05/19 04:14:49;;;;;;;6.03;4.15;;;;;;;7.92;98.20;101681.25;4991920;28;20105;-76
2022/05/19 04:17:16;;;;;;;6.40;3.78;;;;;;;8.01;98.60;101691.25;4992176;28;20038;-76
2022/05/19 04:19:41;;;;;;;7.32;3.92;;;;;;;7.81;99.19;101656.44;4991621;28;20672;-76
2022/05/19 04:22:07;;;;;;;6.95;4.35;;;;;;;8.08;100.00;101697.69;4991226;28;20042;-75
2022/05/19 04:24:32;;;;;;;7.43;4.50;;;;;;;8.11;100.00;101682.44;4991844;28;20031;-76
2022/05/19 04:26:58;;;;;;;8.23;5.15;;;;;;;8.33;100.00;101694.16;4974508;28;20555;-75
2022/05/19 04:29:23;;;;;;;7.57;4.90;;;;;;;8.22;100.00;101666.06;4991454;28;20030;-78
2022/05/19 04:31:49;;;;;;;7.65;5.18;;;;;;;8.30;100.00;101681.09;4991760;28;20042;-77
2022/05/19 04:34:14;;;;;;;9.65;5.20;;;;;;;8.23;100.00;101665.25;4991591;28;20034;-75
2022/05/19 04:36:40;;;;;;;19.23;6.30;;;;;;;8.28;100.00;101673.28;4991543;28;20036;-76
2022/05/19 04:39:05;;;;;;;10.55;5.75;;;;;;;8.17;100.00;101657.13;4991645;28;20116;-74
2022/05/19 04:41:31;;;;;;;13.07;6.13;;;;;;;8.12;100.00;101643.06;4990929;28;20121;-76
2022/05/19 04:43:57;;;;;;;11.45;6.85;;;;;;;8.38;100.00;101687.63;4991585;28;20053;-76
2022/05/19 04:46:22;;;;;;;10.75;6.68;;;;;;;8.37;100.00;101685.84;4991757;28;20034;-76
2022/05/19 04:48:48;;;;;;;10.00;7.35;;;;;;;8.40;100.00;101686.06;4991644;28;20449;-76
2022/05/19 04:51:13;;;;;;;10.02;7.63;;;;;;;8.47;100.00;101690.81;4991180;28;20038;-75
2022/05/19 04:53:39;;;;;;;9.45;7.43;;;;;;;8.46;100.00;101691.66;4990369;28;20026;-76
2022/05/19 04:56:04;;;;;;;10.68;7.68;;;;;;;8.48;100.00;101686.59;4991742;28;20053;-76
2022/05/19 04:58:30;;;;;;;9.90;7.22;;;;;;;8.52;100.00;101689.47;4991333;28;20413;-76
2022/05/19 05:00:55;;;;;;;9.80;7.60;;;;;;;8.46;100.00;101672.69;4991390;28;20026;-75
2022/05/19 05:03:21;;;;;;;9.13;6.68;;;;;;;8.56;100.00;101668.28;4990824;28;20041;-76
2022/05/19 05:05:46;;;;;;;9.82;7.82;;;;;;;8.87;100.00;101690.84;4989767;28;20034;-77
2022/05/19 05:08:12;;;;;;;10.05;7.28;;;;;;;8.80;100.00;101662.91;4991403;28;20034;-77
2022/05/19 05:10:38;;;;;;;11.25;6.93;;;;;;;9.01;100.00;101686.56;4979068;28;20026;-74
2022/05/19 05:13:05;;;;;;;10.13;7.40;;;;;;;9.20;100.00;101698.00;4991073;28;20044;-74
2022/05/19 05:15:30;;;;;;;9.05;6.75;;;;;;;9.20;100.00;101672.25;4972801;28;20092;-75
2022/05/19 05:17:56;;;;;;;9.85;6.55;;;;;;;9.44;100.00;101695.16;4990773;28;20323;-74
2022/05/19 05:20:21;;;;;;;11.95;6.55;;;;;;;9.37;100.00;101661.28;4991079;28;20034;-74
2022/05/19 05:22:47;;;;;;;10.15;6.25;;;;;;;9.72;100.00;101690.00;4991272;28;20481;-74
2022/05/19 05:25:14;;;;;;;9.32;6.25;;;;;;;9.83;100.00;101693.19;4989557;28;20093;-75
2022/05/19 05:27:40;;;;;;;13.40;6.10;;;;;;;10.00;100.00;101694.22;4991136;28;20034;-75
2022/05/19 05:30:07;;;;;;;8.95;6.30;;;;;;;10.07;100.00;101688.63;4991052;28;20464;-74
2022/05/19 05:32:32;;;;;;;8.13;5.55;;;;;;;10.11;100.00;101695.72;4991199;28;20420;-76
2022/05/19 05:34:58;;;;;;;7.88;6.38;;;;;;;10.17;100.00;101690.94;4987675;28;20035;-75
2022/05/19 05:37:24;;;;;;;8.02;5.65;;;;;;;10.27;100.00;101688.88;4964687;28;20412;-74
2022/05/19 05:39:50;;;;;;;6.82;5.05;;;;;;;10.29;100.00;101697.59;4980932;28;20101;-76
2022/05/19 05:42:15;;;;;;;4.70;3.10;;;;;;;10.24;100.00;101709.34;4990160;28;20039;-75
2022/05/19 05:44:40;;;;;;;7.80;3.75;;;;;;;9.92;100.00;101649.00;4989803;28;20535;-74
2022/05/19 05:47:06;;;;;;;4.35;2.65;;;;;;;10.31;100.00;101696.00;4989505;28;20476;-73
2022/05/19 05:49:32;;;;;;;3.80;1.73;;;;;;;10.23;100.00;101668.84;4989774;28;20045;-76
2022/05/19 05:51:57;;;;;;;2.25;1.58;;;;;;;10.36;100.00;101690.31;4990148;28;20401;-75
2022/05/19 05:54:23;;;;;;;2.65;1.60;;;;;;;10.29;100.00;101698.50;4990422;28;20030;-73
2022/05/19 05:56:48;;;;;;;6.43;1.50;;;;;;;10.39;99.74;101702.50;4990328;28;20030;-74
2022/05/19 05:59:13;;;;;;;2.85;1.30;;;;;;;10.38;99.98;101698.19;4990646;28;20036;-74
2022/05/19 06:01:39;;;;;;;6.43;1.60;;;;;;;10.43;98.50;101703.59;4990332;28;20034;-74
2022/05/19 06:04:05;;;;;;;2.75;1.40;;;;;;;10.52;100.00;101686.06;4989350;28;20037;-77
2022/05/19 06:06:31;;;;;;;2.67;1.63;;;;;;;10.59;100.00;101683.03;4968202;28;20057;-77
2022/05/19 06:08:56;;;;;;;5.30;1.52;;;;;;;10.77;98.70;101706.41;4989659;28;20499;-79
2022/05/19 06:11:22;;;;;;;3.90;1.48;;;;;;;10.67;97.99;101666.25;4989866;28;20034;-78
2022/05/19 06:13:50;;;;;;;3.72;1.50;;;;;;;10.91;97.78;101694.25;4989857;28;20392;-78
2022/05/19 06:16:16;;;;;;;3.50;1.30;;;;;;;10.99;94.80;101710.16;4991398;28;20038;-78
2022/05/19 06:18:41;;;;;;;3.63;1.48;;;;;;;11.09;96.53;101706.38;4992354;28;20762;-78
2022/05/19 06:21:07;;;;;;;2.85;1.58;;;;;;;10.93;98.08;101668.47;4993282;28;20112;-77
2022/05/19 06:23:33;;;;;;;8.93;1.70;;;;;;;11.25;96.95;101716.78;4993295;28;20080;-77
2022/05/19 06:25:59;;;;;;;1.67;1.25;;;;;;;11.41;98.61;101707.25;4993148;28;20041;-78
2022/05/19 06:28:25;;;;;;;5.75;1.38;;;;;;;11.51;97.70;101706.03;4993548;28;20092;-77
2022/05/19 06:30:50;;;;;;;3.42;1.50;;;;;;;11.60;97.78;101707.44;4993033;28;20034;-74
2022/05/19 06:33:18;;;;;;;4.65;1.60;;;;;;;11.62;95.86;101695.44;4993129;28;20027;-78
2022/05/19 06:35:44;;;;;;;3.17;1.60;;;;;;;11.95;94.67;101723.88;4993118;28;20034;-77
2022/05/19 06:38:10;;;;;;;4.95;2.03;;;;;;;12.05;94.36;101720.13;4992464;28;20029;-77
2022/05/19 06:40:35;;;;;;;4.22;1.30;;;;;;;11.93;94.69;101709.97;4974794;28;20523;-77
2022/05/19 06:43:07;;;;;;;5.97;1.35;;;;;;;12.04;94.89;101715.75;4993128;28;20042;-78
2022/05/19 06:45:33;;;;;;;3.88;1.42;;;;;;;12.24;97.51;101714.16;4991663;28;20559;-78
2022/05/19 06:47:58;;;;;;;3.67;1.48;;;;;;;12.13;96.81;101679.94;4992817;28;20034;-78
2022/05/19 06:50:24;;;;;;;5.25;1.48;;;;;;;12.59;92.11;101719.31;4992590;28;20179;-76
2022/05/19 06:52:55;;;;;;;6.90;1.63;;;;;;;12.73;94.77;101699.25;4992670;28;20038;-75
2022/05/19 06:55:23;;;;;;;2.33;1.30;;;;;;;13.00;92.72;101707.44;4975449;28;20023;-75
2022/05/19 06:57:49;;;;;;;5.07;1.50;;;;;;;12.66;92.28;101646.25;4992536;28;20030;-75
2022/05/19 07:00:19;;;;;;;3.15;1.40;;;;;;;13.06;93.68;101683.50;4992567;28;20027;-75
2022/05/19 07:02:51;;;;;;;1.98;1.05;;;;;;;13.20;91.43;101708.38;4989531;28;20030;-75
2022/05/19 07:05:19;;;;;;;3.53;1.38;;;;;;;13.06;91.27;101678.31;4992343;28;20169;-76
2022/05/19 07:07:46;;;;;;;5.18;1.65;;;;;;;13.12;93.32;101670.81;4992591;28;20022;-75
2022/05/19 07:10:15;;;;;;;4.82;1.30;;;;;;;13.22;92.79;101711.03;4991547;28;20030;-75
2022/05/19 07:12:43;;;;;;;7.30;1.50;;;;;;;13.30;92.02;101704.50;4991228;28;20634;-75
2022/05/19 07:15:09;;;;;;;3.60;1.40;;;;;;;13.43;91.27;101699.09;4991807;28;20034;-75
2022/05/19 07:17:34;;;;;;;1.48;1.10;;;;;;;13.29;91.33;101666.41;4992398;28;20029;-75
2022/05/19 07:22:44;;;;;;;3.13;1.33;;;;;;;13.70;81.96;101697.66;4991012;28;20084;-75
2022/05/19 07:25:11;;;;;;;4.45;1.40;;;;;;;13.80;84.81;101689.44;4991099;28;20030;-78
2022/05/19 07:27:37;;;;;;;4.55;1.20;;;;;;;13.94;84.56;101682.22;4991472;28;20102;-77
2022/05/19 07:30:04;;;;;;;2.53;1.25;;;;;;;14.17;77.78;101705.72;4992129;28;20129;-78
2022/05/19 07:32:29;;;;;;;2.90;1.30;;;;;;;14.29;78.92;101708.78;4991775;28;20719;-77
2022/05/19 07:34:58;;;;;;;2.75;1.30;;;;;;;14.27;78.06;101693.97;4991855;28;20034;-77
2022/05/19 07:37:25;;;;;;;2.03;1.23;;;;;;;14.37;77.65;101710.00;4992675;28;20027;-78
2022/05/19 07:39:52;;;;;;;3.80;1.25;;;;;;;14.47;76.96;101702.59;4992777;28;20055;-78
2022/05/19 07:42:19;;;;;;;2.75;1.20;;;;;;;14.31;79.03;101673.38;4992008;28;20038;-77
2022/05/19 07:44:44;;;;;;;3.70;1.60;;;;;;;14.55;80.46;101698.59;4993125;28;20034;-77
2022/05/19 07:47:10;;;;;;;4.18;1.63;;;;;;;14.61;76.14;101685.84;4992428;28;20018;-77
2022/05/19 07:49:36;;;;;;;5.18;1.50;;;;;;;14.82;80.49;101695.34;4992541;28;20457;-78
2022/05/19 07:52:02;;;;;;;8.70;1.50;;;;;;;14.76;79.48;101687.31;4975366;28;20038;-77
2022/05/19 07:54:28;;;;;;;2.72;1.27;;;;;;;15.07;67.85;101698.91;4975027;28;20046;-77
2022/05/19 07:56:54;;;;;;;5.53;1.52;;;;;;;15.13;68.61;101694.81;4992466;28;20030;-80
2022/05/19 07:59:20;;;;;;;6.10;1.27;;;;;;;15.40;65.71;101681.06;4992353;28;20493;-76
2022/05/19 08:01:47;;;;;;;4.53;1.27;;;;;;;15.53;64.35;101690.22;4992573;28;20168;-77
2022/05/19 08:04:15;;;;;;;4.63;1.25;;;;;;;15.61;65.87;101691.34;4992374;28;20409;-77
2022/05/19 08:06:41;;;;;;;19.23;3.83;;;;;;;15.74;62.21;101694.41;4992301;28;20031;-77
2022/05/19 08:11:52;;;;;;;4.20;1.40;;;;;;;15.78;59.26;101667.66;4992428;28;20033;-77
2022/05/19 08:17:03;;;;;;;5.13;1.38;;;;;;;16.09;61.11;101687.84;4992194;28;20038;-78
2022/05/19 08:19:29;;;;;;;4.15;1.35;;;;;;;16.11;60.98;101680.09;4992176;28;20038;-77
2022/05/19 08:21:55;;;;;;;3.45;1.10;;;;;;;15.92;59.59;101683.78;4992027;28;20035;-78
2022/05/19 08:24:24;;;;;;;10.00;1.35;;;;;;;15.88;62.90;101674.09;4992140;28;20038;-78
2022/05/19 08:26:50;;;;;;;2.85;1.10;;;;;;;15.83;65.42;101658.31;4974827;28;20058;-78
2022/05/19 08:29:18;;;;;;;8.85;1.83;;;;;;;16.24;60.17;101671.84;4992009;28;20035;-78
2022/05/19 08:31:45;;;;;;;5.25;1.30;;;;;;;16.26;59.73;101657.16;4991844;28;20164;-78
2022/05/19 08:34:10;;;;;;;4.30;1.30;;;;;;;16.34;56.80;101671.31;4991939;28;20034;-78
2022/05/19 08:36:36;;;;;;;4.25;1.25;;;;;;;16.09;55.99;101627.06;4973271;28;20038;-76
2022/05/19 08:39:02;;;;;;;2.47;1.23;;;;;;;16.42;60.20;101670.66;4991387;28;20054;-76
2022/05/19 08:41:48;;;;;;;3.72;1.30;;;;;;;16.65;59.26;101667.06;4991639;28;20030;-75
2022/05/19 08:44:16;;;;;;;9.48;2.25;;;;;;;16.79;60.15;101669.22;4991352;28;20038;-75
2022/05/19 08:46:46;;;;;;;4.35;1.30;;;;;;;16.76;56.77;101674.34;4957120;28;20176;-75
2022/05/19 08:49:20;;;;;;;4.70;1.73;;;;;;;16.68;57.69;101652.38;4991564;28;20096;-75
2022/05/19 08:52:01;;;;;;;5.35;1.45;;;;;;;16.78;58.83;101657.03;4991637;28;20477;-75
2022/05/19 08:54:28;;;;;;;2.72;1.20;;;;;;;16.99;56.60;101675.06;4974212;28;20408;-76
2022/05/19 08:56:59;;;;;;;5.65;1.20;;;;;;;17.02;57.05;101663.84;4991217;28;20029;-75
2022/05/19 08:59:24;;;;;;;6.55;1.23;;;;;;;17.11;57.10;101664.13;4991332;28;20113;-75
2022/05/19 09:01:54;;;;;;;6.70;1.40;;;;;;;17.28;55.33;101662.00;4991633;28;20113;-75
2022/05/19 09:04:54;;;;;;;2.22;1.48;;;;;;;17.43;60.40;101666.75;4991479;28;20030;-75
2022/05/19 09:07:57;;;;;;;1.70;1.20;;;;;;;17.45;58.02;101637.25;4991147;28;20120;-75
2022/05/19 09:10:25;;;;;;;3.00;1.20;;;;;;;17.75;56.57;101651.97;4991088;28;20089;-75
2022/05/19 09:12:57;;;;;;;2.50;1.23;;;;;;;17.85;58.36;101647.00;4991820;28;20042;-75
2022/05/19 09:15:23;;;;;;;1.92;1.40;;;;;;;17.98;55.55;101656.06;4991616;28;20057;-77
2022/05/19 09:17:49;;;;;;;3.92;1.38;;;;;;;18.16;54.25;101643.44;4990903;28;20107;-73
2022/05/19 09:20:29;;;;;;;1.38;1.10;;;;;;;17.98;51.38;101646.50;4974321;28;20034;-75
2022/05/19 09:23:01;;;;;;;4.97;1.60;;;;;;;17.94;54.08;101632.47;4991079;28;20038;-74
2022/05/19 09:25:27;;;;;;;4.55;1.40;;;;;;;18.05;57.21;101645.78;4990997;28;20516;-75
2022/05/19 09:27:53;;;;;;;6.90;1.50;;;;;;;18.10;58.34;101628.50;4991031;28;20061;-76
2022/05/19 09:30:55;;;;;;;6.93;1.35;;;;;;;18.09;53.12;101604.94;4991062;28;20035;-78
2022/05/19 09:33:29;;;;;;;6.35;1.48;;;;;;;18.38;52.85;101630.88;4990984;28;20572;-74
2022/05/19 09:35:58;;;;;;;4.55;1.17;;;;;;;18.53;51.79;101639.09;4991482;28;20040;-74
2022/05/19 09:38:43;;;;;;;3.22;1.10;;;;;;;18.56;52.49;101631.31;4990984;28;20118;-75
2022/05/19 09:41:24;;;;;;;5.15;1.30;;;;;;;18.65;51.76;101622.78;4991307;28;20046;-74
2022/05/19 09:43:54;;;;;;;2.55;1.20;;;;;;;18.81;54.46;101623.13;4990916;28;20066;-74
2022/05/19 09:46:20;;;;;;;3.28;1.40;;;;;;;18.94;54.41;101616.44;4990888;28;20520;-75
2022/05/19 09:48:57;;;;;;;2.95;1.30;;;;;;;19.21;51.38;101627.47;4990700;28;20085;-75
2022/05/19 09:51:31;;;;;;;4.50;1.30;;;;;;;19.34;48.34;101617.25;4994116;28;20018;-76
2022/05/19 09:53:59;;;;;;;6.53;1.52;;;;;;;19.37;47.15;101598.97;4995042;28;20041;-76
2022/05/19 09:56:37;;;;;;;4.30;1.58;;;;;;;19.40;51.02;101604.25;4994625;28;20030;-76
2022/05/19 09:59:11;;;;;;;10.98;2.30;;;;;;;19.32;53.29;101603.25;4994813;28;20396;-76
2022/05/19 10:01:42;;;;;;;7.97;1.90;;;;;;;19.47;49.58;101605.28;4994786;28;20025;-75
2022/05/19 10:04:25;;;;;;;7.97;1.42;;;;;;;19.18;49.92;101569.84;4994882;28;20097;-76
2022/05/19 10:06:55;;;;;;;4.57;1.30;;;;;;;19.61;49.84;101609.00;4994596;28;20045;-76
2022/05/19 10:09:32;;;;;;;7.70;1.77;;;;;;;19.59;48.05;101588.88;4994601;28;20484;-74
2022/05/19 10:12:12;;;;;;;4.30;1.40;;;;;;;19.48;46.83;101547.69;4994302;28;20026;-75
2022/05/19 10:14:43;;;;;;;6.78;1.40;;;;;;;20.03;48.03;101601.91;4994626;28;20019;-76
2022/05/19 10:17:27;;;;;;;7.30;1.35;;;;;;;20.04;52.21;101603.66;4994133;28;20089;-76
2022/05/19 10:20:09;;;;;;;3.67;1.20;;;;;;;19.82;44.48;101592.78;4994233;28;20464;-76
2022/05/19 10:22:59;;;;;;;3.97;1.30;;;;;;;19.89;45.78;101580.72;4994293;28;20026;-75
2022/05/19 10:25:42;;;;;;;11.25;1.80;;;;;;;20.17;51.06;101589.88;4994393;28;20113;-75
2022/05/19 10:31:25;;;;;;;2.60;1.23;;;;;;;20.12;47.62;101560.09;4994413;28;20113;-75
2022/05/19 10:34:34;;;;;;;4.97;1.40;;;;;;;19.97;46.51;101576.47;4993135;28;20086;-75
2022/05/19 10:36:59;;;;;;;;;;;;;;;19.96;46.31;101577.34;4896248;29;20201;-78
2022/05/19 10:39:50;;;;;;;2.60;1.20;;;;;;;19.49;45.10;101559.94;4895688;29;20429;-78
2022/05/19 10:42:15;;;;;;;6.38;1.80;;;;;;;19.54;45.53;101581.84;4895959;29;20045;-78
2022/05/19 10:45:10;;;;;;;9.38;2.03;;;;;;;19.71;49.76;101581.25;4895801;29;20033;-77
2022/05/19 10:47:46;;;;;;;5.78;1.48;;;;;;;19.77;48.32;101546.41;4895746;29;20044;-77
2022/05/19 10:50:33;;;;;;;6.68;1.60;;;;;;;20.35;45.61;101560.44;4895685;29;20092;-77
2022/05/19 10:53:22;;;;;;;4.93;1.42;;;;;;;20.67;44.21;101560.00;4895603;29;20044;-78
2022/05/19 10:56:18;;;;;;;2.90;1.20;;;;;;;20.61;47.40;101556.38;4895627;29;20037;-75
2022/05/19 10:59:05;;;;;;;3.95;1.30;;;;;;;20.71;43.26;101546.88;4895332;29;20076;-76
2022/05/19 11:01:53;;;;;;;2.80;1.25;;;;;;;21.06;44.08;101544.72;4894357;29;20176;-77
2022/05/19 11:04:34;;;;;;;4.88;1.50;;;;;;;20.93;43.20;101542.81;4895631;29;20407;-74
2022/05/19 11:07:30;;;;;;;2.85;1.50;;;;;;;20.87;42.13;101540.97;4897075;29;20048;-78
2022/05/19 11:10:07;;;;;;;3.40;1.35;;;;;;;20.95;43.51;101499.97;4896798;29;20399;-78
2022/05/19 11:13:01;;;;;;;6.40;1.27;;;;;;;21.24;44.96;101535.25;4940625;28;20030;-76
2022/05/19 11:15:29;;;;;;;3.80;1.20;;;;;;;21.51;42.81;101518.88;4991814;28;20038;-77
2022/05/19 11:18:08;;;;;;;6.10;1.63;;;;;;;21.60;43.18;101524.22;4991592;28;20779;-77
2022/05/19 11:20:59;;;;;;;3.63;1.33;;;;;;;21.94;40.26;101494.69;4991426;28;20050;-76
2022/05/19 11:23:30;;;;;;;2.78;1.45;;;;;;;22.41;38.95;101517.75;4991882;28;20113;-77
2022/05/19 11:26:23;;;;;;;3.45;1.30;;;;;;;22.48;38.13;101505.53;4990309;28;20559;-78
2022/05/19 11:29:07;;;;;;;2.38;1.10;;;;;;;22.58;44.70;101517.84;4991837;28;20060;-75
2022/05/19 11:31:48;;;;;;;2.53;1.30;;;;;;;22.58;40.92;101490.63;4992529;28;20026;-81
2022/05/19 11:34:35;;;;;;;4.75;1.33;;;;;;;22.74;38.64;101510.00;4972543;28;20049;-80
2022/05/19 11:37:22;;;;;;;1.98;1.40;;;;;;;22.81;39.25;101503.88;4990505;28;20043;-81
2022/05/19 11:40:01;;;;;;;6.35;1.50;;;;;;;22.80;36.69;101452.09;4991225;28;20623;-81
2022/05/19 11:42:42;;;;;;;3.40;1.30;;;;;;;23.09;42.00;101486.38;4991737;28;20057;-84
2022/05/19 11:45:15;;;;;;;6.32;1.65;;;;;;;23.27;39.66;101471.50;4974014;28;20477;-79
2022/05/19 11:56:42;;;;;;;4.30;1.40;;;;;;;23.52;40.42;101469.72;4990222;28;20033;-80
2022/05/19 11:59:10;;;;;;;3.72;1.48;;;;;;;23.53;35.96;101475.91;4991566;28;20029;-79
2022/05/19 12:01:43;;;;;;;4.53;1.42;;;;;;;23.67;37.32;101479.38;4990477;28;20113;-78
2022/05/19 12:04:19;;;;;;;5.82;1.55;;;;;;;23.70;37.25;101445.13;4996342;28;20019;-77
2022/05/19 12:06:48;;;;;;;3.25;1.15;;;;;;;23.55;36.29;101464.47;4991691;28;20037;-79
2022/05/19 12:09:26;;;;;;;8.57;1.45;;;;;;;23.17;35.41;101472.38;4991073;28;20037;-81
2022/05/19 12:11:58;;;;;;;8.32;1.50;;;;;;;23.28;37.80;101462.72;4991024;28;20038;-82